Delmont, New Jersey
Current Conditions -  °F | °C
As of 6:54 PM on Monday 22 Dec 2014 (Local Time) from KMIV Reporting Station
Light Rain Light Rain  
Wind Chill: 38°   Ceiling: 5000
Heat Index: 43°   Visibility: 10mi
Dew Point: 39°   Wind: 8mph
Humidity: 86%   Direction: 40°NE
Pressure: 30.16"   Gusts: NA
Location:  39.21°N, 74.95°W
Report Text: KMIV 222354Z AUTO 04007KT 10SM -RA SCT020 BKN050 OVC070 06/04 A3016 RMK AO2 RAE15B46 SLP213 P0001 60001 T00610039 10067 20056 55003
Loading
Personal Weather Stations






























Interactive Weather Map New forecast layout! Learn more

10-Day Weather Forecast

Advertisements
Track Severe Weather on mobile